Time;durP1;ratioP1;P1;durP2;ratioP2;P2;SDS_P1;SDS_P2;PMS_P1;PMS_P2;Temp;Humidity;BMP_temperature;BMP_pressure;BME280_temperature;BME280_humidity;BME280_pressure;Samples;Min_cycle;Max_cycle;Signal;HPM_P1;HPM_P2
2022/05/26 00:01:42;;;;;;;11.75;6.18;;;;;;;;;;5014174;28;20223;-61
2022/05/26 00:04:07;;;;;;;9.95;5.93;;;;;;;;;;5016495;28;20212;-61
2022/05/26 00:06:33;;;;;;;9.57;6.20;;;;;;;;;;5021910;28;20732;-61
2022/05/26 00:08:58;;;;;;;10.88;6.13;;;;;;;;;;5021924;28;20212;-61
2022/05/26 00:11:26;;;;;;;9.15;5.90;;;;;;;;;;5021903;28;20211;-61
2022/05/26 00:13:52;;;;;;;10.25;6.20;;;;;;;;;;5024129;28;20580;-61
2022/05/26 00:16:18;;;;;;;11.20;6.68;;;;;;;;;;5021302;28;20306;-62
2022/05/26 00:18:43;;;;;;;10.13;6.65;;;;;;;;;;5021583;28;20215;-61
2022/05/26 00:21:09;;;;;;;10.35;7.20;;;;;;;;;;5013415;28;20643;-61
2022/05/26 00:23:34;;;;;;;10.82;7.90;;;;;;;;;;5014932;28;20215;-62
2022/05/26 00:25:59;;;;;;;10.82;7.47;;;;;;;;;;5014791;28;20224;-62
2022/05/26 00:28:25;;;;;;;14.15;8.63;;;;;;;;;;5021180;28;20223;-61
2022/05/26 00:30:50;;;;;;;14.38;9.45;;;;;;;;;;5040625;28;20215;-62
2022/05/26 00:33:16;;;;;;;13.57;9.98;;;;;;;;;;5026427;28;20254;-61
2022/05/26 00:35:41;;;;;;;16.00;9.90;;;;;;;;;;5041139;28;20211;-61
2022/05/26 00:38:08;;;;;;;15.10;9.82;;;;;;;;;;5040756;28;20296;-61
2022/05/26 00:40:33;;;;;;;14.02;9.68;;;;;;;;;;5040491;28;20223;-61
2022/05/26 00:42:59;;;;;;;12.98;10.48;;;;;;;;;;5024486;28;20223;-62
2022/05/26 00:45:25;;;;;;;15.30;11.18;;;;;;;;;;5013706;28;20284;-62
2022/05/26 00:47:50;;;;;;;14.77;10.98;;;;;;;;;;5013120;28;20227;-61
2022/05/26 00:50:18;;;;;;;14.25;10.77;;;;;;;;;;5018972;28;20588;-61
2022/05/26 00:52:46;;;;;;;15.70;10.55;;;;;;;;;;5034849;28;20308;-61
2022/05/26 00:55:13;;;;;;;15.38;10.77;;;;;;;;;;5004973;28;20308;-61
2022/05/26 00:57:41;;;;;;;15.25;11.20;;;;;;;;;;5021016;28;20226;-61
2022/05/26 01:00:08;;;;;;;13.65;10.80;;;;;;;;;;5022218;28;20235;-61
2022/05/26 01:02:34;;;;;;;14.95;10.93;;;;;;;;;;5021946;28;20265;-62
2022/05/26 01:05:01;;;;;;;14.85;10.20;;;;;;;;;;5017405;28;20231;-62
2022/05/26 01:07:28;;;;;;;14.55;10.38;;;;;;;;;;5015019;28;20689;-61
2022/05/26 01:09:53;;;;;;;16.13;10.43;;;;;;;;;;5010823;28;20233;-62
2022/05/26 01:12:19;;;;;;;15.68;11.65;;;;;;;;;;5014636;28;20867;-61
2022/05/26 01:14:45;;;;;;;16.13;11.20;;;;;;;;;;5022211;28;20690;-62
2022/05/26 01:17:13;;;;;;;14.48;10.73;;;;;;;;;;5024722;28;20855;-62
2022/05/26 01:19:49;;;;;;;13.35;10.70;;;;;;;;;;5023259;28;20219;-61
2022/05/26 01:22:33;;;;;;;15.25;10.85;;;;;;;;;;5042269;28;20223;-61
2022/05/26 01:25:07;;;;;;;15.98;11.13;;;;;;;;;;5024856;28;20571;-61
2022/05/26 01:27:35;;;;;;;15.82;11.45;;;;;;;;;;5004413;28;20219;-61
2022/05/26 01:30:19;;;;;;;17.00;11.52;;;;;;;;;;5016762;28;20489;-61
2022/05/26 01:33:07;;;;;;;14.90;10.63;;;;;;;;;;5026143;28;20683;-61
2022/05/26 01:35:32;;;;;;;15.70;10.68;;;;;;;;;;5022152;28;20212;-61
2022/05/26 01:38:06;;;;;;;16.98;11.60;;;;;;;;;;5029715;28;20218;-61
2022/05/26 01:40:33;;;;;;;15.88;11.38;;;;;;;;;;5040071;28;20219;-61
2022/05/26 01:43:06;;;;;;;16.25;11.40;;;;;;;;;;5024530;28;20583;-61
2022/05/26 01:45:34;;;;;;;17.85;11.93;;;;;;;;;;5024196;28;20215;-62
2022/05/26 01:48:01;;;;;;;16.30;11.85;;;;;;;;;;5007346;28;20220;-62
2022/05/26 01:50:31;;;;;;;15.55;10.77;;;;;;;;;;5021485;28;20807;-62
2022/05/26 01:53:01;;;;;;;17.27;11.60;;;;;;;;;;5010339;28;20218;-62
2022/05/26 01:55:30;;;;;;;17.33;11.80;;;;;;;;;;5018703;28;20216;-61
2022/05/26 01:57:56;;;;;;;16.73;11.27;;;;;;;;;;5040608;28;20709;-62
2022/05/26 02:00:22;;;;;;;18.45;11.85;;;;;;;;;;5021974;28;20576;-62
2022/05/26 02:02:50;;;;;;;17.05;11.98;;;;;;;;;;5020161;28;20285;-61
2022/05/26 02:05:17;;;;;;;17.30;12.40;;;;;;;;;;5003822;28;21251;-61
2022/05/26 02:07:48;;;;;;;19.02;12.18;;;;;;;;;;5021351;28;20247;-61
2022/05/26 02:10:15;;;;;;;17.25;12.13;;;;;;;;;;5023454;28;20219;-61
2022/05/26 02:12:41;;;;;;;18.13;11.93;;;;;;;;;;5013672;28;20212;-61
2022/05/26 02:15:08;;;;;;;17.58;11.82;;;;;;;;;;4996823;28;20216;-61
2022/05/26 02:17:42;;;;;;;19.38;11.77;;;;;;;;;;5012804;28;20571;-61
2022/05/26 02:20:08;;;;;;;17.55;11.75;;;;;;;;;;5018410;28;20712;-61
2022/05/26 02:22:36;;;;;;;18.55;12.18;;;;;;;;;;5018570;28;20290;-61
2022/05/26 02:25:04;;;;;;;16.58;11.63;;;;;;;;;;5007509;28;20220;-61
2022/05/26 02:27:29;;;;;;;17.90;12.23;;;;;;;;;;5017466;28;20718;-61
2022/05/26 02:29:56;;;;;;;20.23;12.20;;;;;;;;;;5008492;28;20213;-61
2022/05/26 02:32:24;;;;;;;21.17;11.85;;;;;;;;;;5004161;28;20941;-62
2022/05/26 02:34:50;;;;;;;22.10;12.23;;;;;;;;;;5001885;28;20247;-61
2022/05/26 02:37:16;;;;;;;21.02;12.35;;;;;;;;;;4996132;28;21384;-61
2022/05/26 02:39:42;;;;;;;19.52;11.32;;;;;;;;;;4994908;28;20240;-62
2022/05/26 02:42:07;;;;;;;17.27;11.02;;;;;;;;;;5003765;28;20212;-61
2022/05/26 02:44:32;;;;;;;15.50;11.57;;;;;;;;;;5003340;28;20200;-61
2022/05/26 02:47:02;;;;;;;16.45;11.40;;;;;;;;;;5002355;28;20303;-61
2022/05/26 02:49:30;;;;;;;20.75;11.82;;;;;;;;;;5021537;28;20707;-61
2022/05/26 02:52:03;;;;;;;20.73;11.38;;;;;;;;;;5020110;28;20334;-62
2022/05/26 02:54:28;;;;;;;19.23;11.10;;;;;;;;;;5006202;28;20303;-61
2022/05/26 02:57:05;;;;;;;18.98;10.40;;;;;;;;;;5003928;28;20307;-61
2022/05/26 02:59:30;;;;;;;20.25;10.70;;;;;;;;;;4994130;28;20212;-61
2022/05/26 03:01:57;;;;;;;23.23;11.27;;;;;;;;;;4995815;28;20742;-61
2022/05/26 03:04:25;;;;;;;18.83;11.13;;;;;;;;;;5002006;28;20237;-62
2022/05/26 03:06:52;;;;;;;20.88;10.50;;;;;;;;;;5023057;28;20301;-62
2022/05/26 03:09:18;;;;;;;21.88;11.43;;;;;;;;;;5023564;28;20694;-62
2022/05/26 03:11:46;;;;;;;20.77;11.30;;;;;;;;;;5021680;28;20292;-62
2022/05/26 03:14:12;;;;;;;24.17;12.10;;;;;;;;;;5028763;28;20219;-62
2022/05/26 03:16:37;;;;;;;21.23;10.82;;;;;;;;;;5022603;28;20223;-61
2022/05/26 03:19:03;;;;;;;19.75;10.45;;;;;;;;;;5023145;28;20215;-61
2022/05/26 03:21:28;;;;;;;21.77;10.73;;;;;;;;;;5016996;28;20223;-62
2022/05/26 03:23:53;;;;;;;24.60;11.15;;;;;;;;;;5015884;28;20227;-63
2022/05/26 03:26:19;;;;;;;20.52;10.30;;;;;;;;;;5015043;28;20208;-62
2022/05/26 03:28:44;;;;;;;29.23;12.55;;;;;;;;;;5021470;28;20216;-61
2022/05/26 03:31:10;;;;;;;25.58;11.48;;;;;;;;;;5021912;28;20593;-61
2022/05/26 03:41:46;;;;;;;26.17;11.23;;;;;;;;;;5029593;28;20245;-61
2022/05/26 03:44:11;;;;;;;24.48;10.45;;;;;;;;;;5015824;28;20215;-62
2022/05/26 03:46:38;;;;;;;23.40;10.30;;;;;;;;;;5014704;28;20224;-62
2022/05/26 03:49:04;;;;;;;28.27;10.52;;;;;;;;;;5001362;28;20811;-62
2022/05/26 03:51:29;;;;;;;28.02;9.90;;;;;;;;;;5020377;28;20208;-62
2022/05/26 03:53:54;;;;;;;27.30;10.65;;;;;;;;;;5023355;28;20688;-61
2022/05/26 03:56:19;;;;;;;27.02;10.13;;;;;;;;;;5022370;28;20323;-61
2022/05/26 03:58:45;;;;;;;25.20;9.60;;;;;;;;;;5022589;28;20737;-61
2022/05/26 04:01:10;;;;;;;24.02;10.00;;;;;;;;;;5021423;28;20223;-61
2022/05/26 04:03:35;;;;;;;28.80;9.52;;;;;;;;;;5023003;28;20215;-62
2022/05/26 04:06:01;;;;;;;23.77;9.45;;;;;;;;;;5017804;28;20238;-62
2022/05/26 04:08:26;;;;;;;26.15;9.80;;;;;;;;;;5011610;28;20214;-62
2022/05/26 04:10:52;;;;;;;24.23;9.35;;;;;;;;;;5014839;28;20911;-62
2022/05/26 04:13:17;;;;;;;24.30;9.23;;;;;;;;;;5016983;28;20208;-61
2022/05/26 04:15:42;;;;;;;22.48;9.00;;;;;;;;;;5022481;28;20208;-60
2022/05/26 04:18:07;;;;;;;24.20;9.13;;;;;;;;;;5021946;28;20437;-60
2022/05/26 04:20:33;;;;;;;27.23;9.83;;;;;;;;;;5022535;28;20425;-61
2022/05/26 04:22:58;;;;;;;25.25;9.13;;;;;;;;;;5022271;28;20214;-62
2022/05/26 04:25:25;;;;;;;22.85;9.27;;;;;;;;;;5021998;28;20653;-64
2022/05/26 04:27:53;;;;;;;26.65;8.77;;;;;;;;;;5021593;28;20504;-62
2022/05/26 04:30:18;;;;;;;26.50;9.35;;;;;;;;;;5016740;28;20682;-62
2022/05/26 04:32:43;;;;;;;24.63;8.23;;;;;;;;;;5014528;28;20566;-62
2022/05/26 04:35:09;;;;;;;26.95;8.63;;;;;;;;;;5016264;28;20211;-62
2022/05/26 04:37:34;;;;;;;28.90;8.20;;;;;;;;;;5021853;28;20275;-62
2022/05/26 04:40:00;;;;;;;21.58;8.32;;;;;;;;;;5021487;28;20224;-62
2022/05/26 04:42:26;;;;;;;26.60;8.20;;;;;;;;;;5021564;28;20231;-63
2022/05/26 04:44:51;;;;;;;24.58;8.07;;;;;;;;;;5023011;28;20253;-63
2022/05/26 04:47:17;;;;;;;26.55;8.52;;;;;;;;;;5020563;28;20251;-63
2022/05/26 04:49:43;;;;;;;24.40;8.50;;;;;;;;;;5021519;28;20216;-61
2022/05/26 04:52:09;;;;;;;22.77;7.75;;;;;;;;;;5014796;28;20587;-61
2022/05/26 04:54:36;;;;;;;27.25;8.32;;;;;;;;;;5014783;28;20254;-62
2022/05/26 04:57:01;;;;;;;30.52;8.40;;;;;;;;;;5013835;28;20253;-61
2022/05/26 04:59:27;;;;;;;23.50;7.15;;;;;;;;;;5020800;28;20220;-65
2022/05/26 05:01:52;;;;;;;27.08;9.05;;;;;;;;;;5023597;28;20294;-64
2022/05/26 05:04:17;;;;;;;25.63;8.00;;;;;;;;;;5021726;28;20270;-63
2022/05/26 05:06:43;;;;;;;26.83;8.00;;;;;;;;;;5021869;28;20222;-64
2022/05/26 05:09:09;;;;;;;24.50;8.13;;;;;;;;;;5020370;28;20307;-62
2022/05/26 05:11:34;;;;;;;25.73;7.88;;;;;;;;;;5022022;28;20598;-63
2022/05/26 05:14:02;;;;;;;25.65;7.72;;;;;;;;;;5017781;28;20223;-64
2022/05/26 05:16:29;;;;;;;26.30;8.05;;;;;;;;;;5013438;28;20729;-63
2022/05/26 05:18:55;;;;;;;27.48;7.80;;;;;;;;;;5031019;28;20214;-64
2022/05/26 05:21:22;;;;;;;22.75;7.63;;;;;;;;;;5016646;28;20245;-63
2022/05/26 05:23:48;;;;;;;22.25;8.73;;;;;;;;;;5039955;28;20226;-62
2022/05/26 05:26:14;;;;;;;27.38;7.70;;;;;;;;;;5032707;28;20765;-61
2022/05/26 05:28:40;;;;;;;29.13;7.88;;;;;;;;;;5009753;28;20666;-60
2022/05/26 05:31:08;;;;;;;27.13;8.00;;;;;;;;;;5003108;28;20802;-61
2022/05/26 05:33:33;;;;;;;28.73;7.68;;;;;;;;;;5021803;28;20245;-62
2022/05/26 05:36:07;;;;;;;27.15;7.60;;;;;;;;;;5018504;28;20215;-62
2022/05/26 05:38:33;;;;;;;22.58;7.70;;;;;;;;;;5032890;28;20208;-62
2022/05/26 05:41:00;;;;;;;23.88;7.45;;;;;;;;;;5032639;28;20223;-62
2022/05/26 05:43:25;;;;;;;23.85;7.18;;;;;;;;;;5028219;28;20589;-61
2022/05/26 05:45:50;;;;;;;23.67;6.82;;;;;;;;;;5021143;28;20219;-62
2022/05/26 05:48:15;;;;;;;26.58;7.20;;;;;;;;;;5020664;28;20220;-63
2022/05/26 05:50:41;;;;;;;25.60;6.93;;;;;;;;;;5020558;28;20235;-62
2022/05/26 05:53:06;;;;;;;21.38;7.00;;;;;;;;;;5019656;28;21149;-61
2022/05/26 05:55:31;;;;;;;25.70;6.90;;;;;;;;;;5021403;28;20200;-61
2022/05/26 05:57:57;;;;;;;22.25;7.47;;;;;;;;;;5020079;28;20219;-62
2022/05/26 06:00:22;;;;;;;24.88;7.03;;;;;;;;;;5013122;28;20228;-62
2022/05/26 06:02:47;;;;;;;21.27;6.95;;;;;;;;;;5014695;28;21096;-62
2022/05/26 06:05:13;;;;;;;21.13;6.38;;;;;;;;;;5015219;28;20234;-63
2022/05/26 06:07:40;;;;;;;19.15;6.60;;;;;;;;;;5023476;28;20740;-64
2022/05/26 06:10:07;;;;;;;23.17;6.45;;;;;;;;;;5024048;28;20345;-65
2022/05/26 06:12:32;;;;;;;24.40;7.18;;;;;;;;;;5023783;28;20211;-64
2022/05/26 06:14:57;;;;;;;20.92;6.90;;;;;;;;;;5039044;28;20222;-65
2022/05/26 06:17:23;;;;;;;24.40;6.68;;;;;;;;;;5048172;28;20212;-64
2022/05/26 06:19:48;;;;;;;19.30;6.18;;;;;;;;;;5045785;28;20199;-64
2022/05/26 06:22:14;;;;;;;21.70;5.57;;;;;;;;;;5050912;28;20277;-64
2022/05/26 06:24:40;;;;;;;16.80;5.75;;;;;;;;;;5032462;28;20203;-63
2022/05/26 06:29:49;;;;;;;25.23;6.10;;;;;;;;;;5050280;28;20211;-64
2022/05/26 06:29:51;;;;;;;20.88;5.72;;;;;;;;;;5035306;28;20223;-63
2022/05/26 06:37:45;;;;;;;19.08;4.97;;;;;;;;;;5047202;28;20230;-64
2022/05/26 06:40:10;;;;;;;19.75;4.82;;;;;;;;;;5048905;28;20689;-64
2022/05/26 06:42:35;;;;;;;18.77;5.40;;;;;;;;;;5052216;28;20211;-63
2022/05/26 06:45:01;;;;;;;20.50;5.18;;;;;;;;;;5052682;28;20211;-63
2022/05/26 06:47:26;;;;;;;19.02;5.22;;;;;;;;;;5039655;28;20216;-64
2022/05/26 06:49:52;;;;;;;19.58;5.05;;;;;;;;;;5052258;28;20207;-64
2022/05/26 06:52:17;;;;;;;18.02;4.70;;;;;;;;;;5035560;28;20218;-63
2022/05/26 06:54:43;;;;;;;18.98;4.82;;;;;;;;;;5052650;28;20211;-63
2022/05/26 06:57:09;;;;;;;16.73;4.57;;;;;;;;;;5037141;28;20728;-64
2022/05/26 06:59:34;;;;;;;15.68;4.50;;;;;;;;;;5037121;28;20215;-63
2022/05/26 07:01:59;;;;;;;15.13;4.07;;;;;;;;;;5048304;28;20586;-64
2022/05/26 07:04:25;;;;;;;17.73;4.45;;;;;;;;;;5048777;28;20270;-64
2022/05/26 07:06:51;;;;;;;19.77;4.13;;;;;;;;;;5032042;28;20223;-63
2022/05/26 07:09:16;;;;;;;14.93;3.95;;;;;;;;;;5044044;28;20696;-63
2022/05/26 07:11:42;;;;;;;17.48;3.72;;;;;;;;;;5044475;28;20307;-63
2022/05/26 07:14:07;;;;;;;16.10;3.45;;;;;;;;;;5041321;28;20219;-64
2022/05/26 07:16:33;;;;;;;15.07;3.13;;;;;;;;;;5048668;28;20572;-64
2022/05/26 07:18:58;;;;;;;11.48;2.85;;;;;;;;;;5050778;28;20256;-64
2022/05/26 07:21:23;;;;;;;10.57;2.90;;;;;;;;;;5051262;28;20373;-63
2022/05/26 07:23:48;;;;;;;16.15;4.03;;;;;;;;;;5050531;28;20556;-63
2022/05/26 07:26:14;;;;;;;18.08;3.45;;;;;;;;;;5051913;28;20622;-63
2022/05/26 07:28:40;;;;;;;11.02;2.67;;;;;;;;;;5044667;28;20226;-64
2022/05/26 07:31:06;;;;;;;11.57;2.67;;;;;;;;;;5051764;28;20217;-64
2022/05/26 07:33:31;;;;;;;14.40;2.55;;;;;;;;;;5052260;28;20207;-64
2022/05/26 07:35:57;;;;;;;11.27;2.80;;;;;;;;;;5051829;28;20265;-64
2022/05/26 07:41:17;;;;;;;11.30;2.25;;;;;;;;;;5038236;28;20360;-63
2022/05/26 07:43:49;;;;;;;11.63;2.10;;;;;;;;;;5016817;28;20215;-64
2022/05/26 07:46:15;;;;;;;9.45;2.60;;;;;;;;;;5031609;28;20273;-63
2022/05/26 07:48:40;;;;;;;10.23;2.10;;;;;;;;;;5018401;28;20672;-63
2022/05/26 07:51:06;;;;;;;8.82;2.53;;;;;;;;;;5036120;28;20242;-63
2022/05/26 07:53:31;;;;;;;8.93;2.10;;;;;;;;;;5041318;28;20227;-63
2022/05/26 07:55:57;;;;;;;8.45;1.90;;;;;;;;;;5048402;28;20289;-64
2022/05/26 07:58:22;;;;;;;9.77;2.00;;;;;;;;;;5046381;28;20681;-64
2022/05/26 08:00:48;;;;;;;10.88;1.92;;;;;;;;;;5044982;28;20223;-64
2022/05/26 08:03:13;;;;;;;9.50;2.75;;;;;;;;;;5031633;28;20215;-63
2022/05/26 08:05:39;;;;;;;9.50;1.90;;;;;;;;;;5050008;28;20727;-63
2022/05/26 08:08:04;;;;;;;8.10;1.83;;;;;;;;;;5050848;28;20196;-63
2022/05/26 08:10:29;;;;;;;9.65;1.70;;;;;;;;;;5035321;28;20295;-63
2022/05/26 08:12:55;;;;;;;6.68;1.42;;;;;;;;;;5051459;28;20215;-64
2022/05/26 08:15:22;;;;;;;8.35;1.50;;;;;;;;;;5031857;28;20646;-64
2022/05/26 08:17:47;;;;;;;5.47;1.40;;;;;;;;;;5031297;28;20216;-63
2022/05/26 08:20:13;;;;;;;8.63;1.70;;;;;;;;;;5039246;28;20223;-63
2022/05/26 08:22:38;;;;;;;9.50;2.10;;;;;;;;;;5037761;28;20633;-63
2022/05/26 08:25:04;;;;;;;12.10;2.75;;;;;;;;;;5030051;28;20215;-63
2022/05/26 08:27:29;;;;;;;7.50;1.77;;;;;;;;;;5046170;28;20235;-64
2022/05/26 08:29:54;;;;;;;7.35;1.70;;;;;;;;;;5035288;28;20208;-63
2022/05/26 08:32:20;;;;;;;5.57;1.30;;;;;;;;;;5045722;28;20243;-63
2022/05/26 08:34:45;;;;;;;8.48;1.60;;;;;;;;;;5036319;28;20233;-63
2022/05/26 08:37:14;;;;;;;8.18;1.63;;;;;;;;;;5030767;28;20208;-63
2022/05/26 08:39:39;;;;;;;6.45;1.15;;;;;;;;;;5043919;28;20211;-64
2022/05/26 08:42:04;;;;;;;7.88;1.40;;;;;;;;;;5040646;28;20632;-64
2022/05/26 08:44:30;;;;;;;6.10;1.60;;;;;;;;;;5031564;28;20212;-64
2022/05/26 08:47:01;;;;;;;7.32;2.10;;;;;;;;;;5028905;28;20714;-63
2022/05/26 08:49:39;;;;;;;7.40;2.10;;;;;;;;;;5024816;28;20237;-63
2022/05/26 08:52:07;;;;;;;9.60;1.88;;;;;;;;;;5050468;28;20508;-64
2022/05/26 08:54:35;;;;;;;5.60;1.25;;;;;;;;;;5033411;28;20295;-63
2022/05/26 08:57:00;;;;;;;5.07;1.30;;;;;;;;;;5031075;28;20302;-63
2022/05/26 08:59:29;;;;;;;7.13;1.23;;;;;;;;;;5024986;28;20307;-64
2022/05/26 09:01:54;;;;;;;5.70;1.33;;;;;;;;;;5038079;28;20227;-63
2022/05/26 09:04:19;;;;;;;4.57;1.35;;;;;;;;;;5050337;28;20218;-63
2022/05/26 09:14:57;;;;;;;6.95;1.65;;;;;;;;;;5030406;28;20221;-63
2022/05/26 09:17:23;;;;;;;7.85;1.45;;;;;;;;;;5028890;28;20204;-63
2022/05/26 09:19:49;;;;;;;6.22;1.50;;;;;;;;;;5040904;28;20222;-63
2022/05/26 09:22:26;;;;;;;4.97;1.58;;;;;;;;;;5039971;28;20220;-63
2022/05/26 09:24:52;;;;;;;6.35;1.70;;;;;;;;;;5051167;28;20210;-64
2022/05/26 09:27:30;;;;;;;7.18;1.73;;;;;;;;;;5018928;28;20592;-63
2022/05/26 09:30:13;;;;;;;7.70;1.63;;;;;;;;;;5040802;28;20223;-63
2022/05/26 09:32:39;;;;;;;6.82;1.63;;;;;;;;;;5046834;28;20253;-63
2022/05/26 09:35:05;;;;;;;7.25;1.88;;;;;;;;;;5049511;28;20235;-63
2022/05/26 09:37:38;;;;;;;7.82;1.88;;;;;;;;;;5033988;28;20565;-62
2022/05/26 09:40:10;;;;;;;4.13;1.40;;;;;;;;;;5042437;28;20219;-62
2022/05/26 09:42:35;;;;;;;6.60;1.48;;;;;;;;;;5046316;28;20211;-62
2022/05/26 09:45:02;;;;;;;5.38;1.60;;;;;;;;;;5046576;28;20211;-61
2022/05/26 09:47:29;;;;;;;9.57;1.60;;;;;;;;;;5034375;28;20215;-62
2022/05/26 09:49:56;;;;;;;9.55;1.85;;;;;;;;;;5032536;28;20218;-60
2022/05/26 09:52:23;;;;;;;9.65;2.08;;;;;;;;;;5052743;28;20211;-61
2022/05/26 09:54:49;;;;;;;6.93;1.60;;;;;;;;;;5042780;28;20216;-61
2022/05/26 09:57:21;;;;;;;5.25;1.60;;;;;;;;;;5031121;28;20295;-61
2022/05/26 09:59:47;;;;;;;5.82;1.90;;;;;;;;;;5035181;28;20215;-61
2022/05/26 10:02:23;;;;;;;5.28;1.33;;;;;;;;;;5028786;28;20234;-60
2022/05/26 10:04:52;;;;;;;6.43;1.92;;;;;;;;;;5032639;28;20330;-60
2022/05/26 10:07:29;;;;;;;5.70;1.75;;;;;;;;;;5034410;28;20755;-60
2022/05/26 10:10:07;;;;;;;5.18;1.40;;;;;;;;;;5031824;28;20207;-60
2022/05/26 10:12:43;;;;;;;6.13;1.40;;;;;;;;;;5050216;28;20207;-61
2022/05/26 10:15:08;;;;;;;5.75;1.20;;;;;;;;;;5052137;28;20207;-61
2022/05/26 10:17:38;;;;;;;5.68;1.30;;;;;;;;;;5039648;28;20212;-60
2022/05/26 10:20:22;;;;;;;3.42;1.30;;;;;;;;;;5031373;28;20915;-61
2022/05/26 10:22:57;;;;;;;3.40;1.10;;;;;;;;;;5052016;28;20215;-61
2022/05/26 10:25:33;;;;;;;5.50;1.40;;;;;;;;;;5031863;28;20199;-61
2022/05/26 10:28:05;;;;;;;5.40;1.23;;;;;;;;;;5051590;28;20211;-61
2022/05/26 10:30:38;;;;;;;6.20;1.08;;;;;;;;;;5052695;28;20207;-61
2022/05/26 10:33:05;;;;;;;5.40;0.90;;;;;;;;;;5034272;28;20293;-62
2022/05/26 10:35:31;;;;;;;6.05;0.93;;;;;;;;;;5053309;28;20218;-62
2022/05/26 10:38:15;;;;;;;3.88;0.82;;;;;;;;;;5048317;28;20308;-62
2022/05/26 10:40:43;;;;;;;3.90;0.85;;;;;;;;;;5034014;28;20235;-62
2022/05/26 10:43:10;;;;;;;6.22;1.00;;;;;;;;;;5031269;28;20200;-62
2022/05/26 10:45:36;;;;;;;4.35;0.90;;;;;;;;;;5044632;28;20227;-62
2022/05/26 10:48:09;;;;;;;5.78;1.20;;;;;;;;;;5048178;28;20215;-61
2022/05/26 10:50:35;;;;;;;5.70;1.13;;;;;;;;;;5049029;28;20220;-62
2022/05/26 10:53:03;;;;;;;5.95;1.15;;;;;;;;;;5031615;28;20285;-62
2022/05/26 10:55:33;;;;;;;5.78;1.50;;;;;;;;;;5034316;28;20207;-62
2022/05/26 10:58:05;;;;;;;5.75;1.38;;;;;;;;;;5025552;28;20212;-63
2022/05/26 11:00:30;;;;;;;6.75;1.50;;;;;;;;;;5030607;28;20675;-62
2022/05/26 11:03:13;;;;;;;7.38;1.20;;;;;;;;;;5032861;28;20227;-62
2022/05/26 11:05:46;;;;;;;5.25;1.30;;;;;;;;;;5036003;28;20305;-62
2022/05/26 11:08:13;;;;;;;7.25;1.38;;;;;;;;;;5042849;28;20221;-62
2022/05/26 11:10:44;;;;;;;6.30;1.50;;;;;;;;;;5034727;28;20581;-62
2022/05/26 11:13:13;;;;;;;8.60;1.75;;;;;;;;;;5044695;28;20222;-62
2022/05/26 11:18:26;;;;;;;4.63;1.20;;;;;;;;;;5036036;28;20607;-63
2022/05/26 11:20:53;;;;;;;4.78;1.20;;;;;;;;;;5015890;28;20231;-63
2022/05/26 11:23:19;;;;;;;5.40;1.10;;;;;;;;;;5033525;28;20239;-62
2022/05/26 11:25:46;;;;;;;6.90;1.35;;;;;;;;;;5052027;28;20300;-62
2022/05/26 11:28:21;;;;;;;5.78;1.20;;;;;;;;;;5046319;28;20249;-62
2022/05/26 11:36:21;;;;;;;6.22;1.55;;;;;;;;;;5033207;28;20269;-62
2022/05/26 11:38:48;;;;;;;6.32;1.30;;;;;;;;;;5049367;28;20618;-63
2022/05/26 11:41:14;;;;;;;6.45;1.52;;;;;;;;;;5044682;28;20257;-64
2022/05/26 11:43:41;;;;;;;8.57;1.30;;;;;;;;;;5031044;28;20254;-64
2022/05/26 11:46:07;;;;;;;7.65;1.35;;;;;;;;;;5046669;28;20215;-63
2022/05/26 11:48:33;;;;;;;7.10;1.10;;;;;;;;;;5051589;28;20580;-63
2022/05/26 11:50:58;;;;;;;7.07;1.10;;;;;;;;;;5044308;28;20215;-64
2022/05/26 11:53:27;;;;;;;4.60;1.10;;;;;;;;;;5049569;28;20210;-63
2022/05/26 11:55:53;;;;;;;5.97;1.13;;;;;;;;;;5033331;28;20238;-63
2022/05/26 11:58:29;;;;;;;5.40;1.20;;;;;;;;;;5033027;28;20670;-64
2022/05/26 12:01:12;;;;;;;5.15;1.23;;;;;;;;;;5050074;28;20231;-64
2022/05/26 12:03:47;;;;;;;7.75;1.27;;;;;;;;;;5050639;28;20211;-64
2022/05/26 12:06:13;;;;;;;8.77;1.20;;;;;;;;;;5038777;28;20270;-64
2022/05/26 12:08:57;;;;;;;4.80;1.02;;;;;;;;;;5030916;28;20257;-65
2022/05/26 12:11:41;;;;;;;3.83;1.00;;;;;;;;;;5038433;28;20210;-65
2022/05/26 12:14:07;;;;;;;7.55;1.10;;;;;;;;;;5050388;28;20249;-63
2022/05/26 12:16:34;;;;;;;5.47;1.10;;;;;;;;;;5050298;28;20207;-64
2022/05/26 12:19:00;;;;;;;5.05;1.10;;;;;;;;;;5050829;28;20222;-65
2022/05/26 12:21:38;;;;;;;6.70;1.17;;;;;;;;;;5044137;28;20223;-65
2022/05/26 12:24:23;;;;;;;5.18;1.00;;;;;;;;;;5030237;28;20219;-64
2022/05/26 12:26:49;;;;;;;4.53;1.00;;;;;;;;;;5041312;28;20219;-65
2022/05/26 12:29:33;;;;;;;5.03;1.33;;;;;;;;;;5047777;28;20211;-65
2022/05/26 12:32:05;;;;;;;4.75;0.95;;;;;;;;;;5045216;28;20416;-65
2022/05/26 12:34:30;;;;;;;5.68;1.02;;;;;;;;;;5049234;28;20279;-65
2022/05/26 12:36:57;;;;;;;7.57;1.10;;;;;;;;;;5031600;28;20222;-65
2022/05/26 12:39:22;;;;;;;7.95;1.25;;;;;;;;;;5032361;28;20207;-65
2022/05/26 12:42:06;;;;;;;6.90;0.98;;;;;;;;;;5047519;28;20282;-64
2022/05/26 12:44:41;;;;;;;5.18;1.30;;;;;;;;;;5031088;28;20207;-65
2022/05/26 12:47:19;;;;;;;5.25;0.85;;;;;;;;;;5049054;28;20297;-65
2022/05/26 12:50:04;;;;;;;3.10;0.80;;;;;;;;;;5033295;28;20218;-65
2022/05/26 12:52:36;;;;;;;5.10;0.90;;;;;;;;;;5044752;28;20299;-65
2022/05/26 12:55:05;;;;;;;6.35;0.90;;;;;;;;;;5049912;28;20215;-64
2022/05/26 12:57:31;;;;;;;6.65;1.10;;;;;;;;;;5030024;28;20238;-65
2022/05/26 13:00:20;;;;;;;8.43;1.50;;;;;;;;;;5029359;28;20235;-65
2022/05/26 13:02:47;;;;;;;4.75;1.17;;;;;;;;;;5036912;28;20223;-65
2022/05/26 13:05:13;;;;;;;3.80;0.90;;;;;;;;;;5017625;28;20243;-64
2022/05/26 13:07:38;;;;;;;4.55;1.17;;;;;;;;;;5032359;28;20215;-65
2022/05/26 13:10:03;;;;;;;7.20;1.02;;;;;;;;;;5050637;28;20211;-64
2022/05/26 13:12:29;;;;;;;3.10;0.90;;;;;;;;;;5036482;28;20264;-64
2022/05/26 13:14:55;;;;;;;5.68;1.10;;;;;;;;;;5025695;28;20216;-65
2022/05/26 13:17:23;;;;;;;6.35;1.38;;;;;;;;;;5036776;28;20294;-64
2022/05/26 13:19:49;;;;;;;6.22;1.10;;;;;;;;;;5054387;28;20213;-65
2022/05/26 13:22:16;;;;;;;5.65;1.20;;;;;;;;;;5052428;28;20214;-65
2022/05/26 13:24:48;;;;;;;9.45;1.70;;;;;;;;;;5042357;28;20551;-64
2022/05/26 13:27:13;;;;;;;5.63;1.23;;;;;;;;;;5046621;28;20559;-64
2022/05/26 13:29:40;;;;;;;5.57;1.55;;;;;;;;;;5054234;28;20297;-64
2022/05/26 13:34:51;;;;;;;5.85;1.38;;;;;;;;;;5034265;28;20291;-65
2022/05/26 13:37:18;;;;;;;6.68;1.52;;;;;;;;;;5030014;28;20215;-64
2022/05/26 13:39:43;;;;;;;7.88;1.70;;;;;;;;;;5054769;28;20211;-64
2022/05/26 13:42:08;;;;;;;8.02;2.30;;;;;;;;;;5039637;28;20254;-64
2022/05/26 13:44:35;;;;;;;7.30;1.95;;;;;;;;;;5019539;28;20210;-64
2022/05/26 13:47:02;;;;;;;8.13;1.90;;;;;;;;;;5024787;28;20250;-65
2022/05/26 13:49:31;;;;;;;9.55;2.10;;;;;;;;;;5036029;28;20286;-64
2022/05/26 13:51:57;;;;;;;8.07;1.90;;;;;;;;;;5054613;28;20276;-64
2022/05/26 13:54:31;;;;;;;9.07;2.17;;;;;;;;;;5032427;28;20570;-64
2022/05/26 13:56:57;;;;;;;6.30;2.13;;;;;;;;;;5042210;28;20215;-64
2022/05/26 13:59:23;;;;;;;8.68;2.53;;;;;;;;;;5032314;28;20273;-64
2022/05/26 14:01:49;;;;;;;6.80;2.70;;;;;;;;;;5032861;28;20808;-64
2022/05/26 14:04:22;;;;;;;10.63;3.00;;;;;;;;;;5036630;28;20224;-64
2022/05/26 14:06:48;;;;;;;8.55;2.78;;;;;;;;;;5043678;28;20254;-64
2022/05/26 14:09:27;;;;;;;9.35;3.22;;;;;;;;;;5049455;28;20686;-64
2022/05/26 14:12:02;;;;;;;9.18;3.10;;;;;;;;;;5033353;28;20218;-64
2022/05/26 14:14:29;;;;;;;11.40;3.90;;;;;;;;;;5033662;28;20235;-65
2022/05/26 14:16:54;;;;;;;9.10;3.70;;;;;;;;;;5051470;28;20203;-64
2022/05/26 14:19:20;;;;;;;7.97;3.63;;;;;;;;;;5034282;28;20219;-64
2022/05/26 14:21:49;;;;;;;9.57;3.88;;;;;;;;;;5032107;28;20261;-65
2022/05/26 14:24:19;;;;;;;9.90;4.38;;;;;;;;;;5038765;28;20712;-64
2022/05/26 14:26:58;;;;;;;9.52;3.67;;;;;;;;;;5027749;28;20216;-64
2022/05/26 14:29:23;;;;;;;13.75;4.50;;;;;;;;;;5052942;28;20207;-64
2022/05/26 14:31:56;;;;;;;9.98;3.65;;;;;;;;;;5052223;28;20219;-65
2022/05/26 14:34:23;;;;;;;10.68;4.20;;;;;;;;;;5033317;28;20680;-64
2022/05/26 14:36:49;;;;;;;12.10;4.38;;;;;;;;;;5020636;28;20219;-65
2022/05/26 14:39:14;;;;;;;7.43;3.45;;;;;;;;;;5050104;28;20215;-64
2022/05/26 14:41:39;;;;;;;8.00;3.47;;;;;;;;;;5053169;28;20219;-64
2022/05/26 14:44:05;;;;;;;10.43;3.13;;;;;;;;;;5045611;28;20219;-63
2022/05/26 14:46:31;;;;;;;7.53;3.08;;;;;;;;;;5028760;28;20628;-63
2022/05/26 14:48:57;;;;;;;6.85;2.60;;;;;;;;;;5050643;28;20688;-63
2022/05/26 14:51:24;;;;;;;5.60;2.22;;;;;;;;;;5042182;28;20220;-63
2022/05/26 14:56:33;;;;;;;9.88;2.92;;;;;;;;;;5052414;28;20575;-63
2022/05/26 14:58:59;;;;;;;9.43;2.40;;;;;;;;;;5014896;28;20679;-63
2022/05/26 15:01:26;;;;;;;7.00;2.47;;;;;;;;;;5033280;28;20280;-64
2022/05/26 15:03:51;;;;;;;8.20;2.50;;;;;;;;;;5026209;28;20223;-64
2022/05/26 15:06:18;;;;;;;8.98;2.40;;;;;;;;;;5023608;28;20246;-63
2022/05/26 15:08:43;;;;;;;9.65;2.53;;;;;;;;;;5029512;28;20505;-63
2022/05/26 15:11:09;;;;;;;8.75;2.47;;;;;;;;;;5043084;28;20656;-64
2022/05/26 15:13:34;;;;;;;8.10;2.60;;;;;;;;;;5040892;28;20215;-64
2022/05/26 15:16:00;;;;;;;9.80;2.60;;;;;;;;;;5045455;28;20243;-64